sensor_id;sensor_type;location;lat;lon;timestamp;P1;durP1;ratioP1;P2;durP2;ratioP2
7375;SDS011;3728;42.266;24.944;2024-02-21T00:00:41;36.47;;;22.60;;
7375;SDS011;3728;42.266;24.944;2024-02-21T00:03:08;22.33;;;15.07;;
7375;SDS011;3728;42.266;24.944;2024-02-21T00:05:37;21.83;;;13.93;;
7375;SDS011;3728;42.266;24.944;2024-02-21T00:08:04;20.33;;;15.23;;
7375;SDS011;3728;42.266;24.944;2024-02-21T00:10:31;19.73;;;14.13;;
7375;SDS011;3728;42.266;24.944;2024-02-21T00:12:59;21.33;;;15.30;;
7375;SDS011;3728;42.266;24.944;2024-02-21T00:15:26;22.77;;;14.97;;
7375;SDS011;3728;42.266;24.944;2024-02-21T00:17:53;26.03;;;15.47;;
7375;SDS011;3728;42.266;24.944;2024-02-21T00:20:21;22.17;;;15.03;;
7375;SDS011;3728;42.266;24.944;2024-02-21T00:22:52;21.90;;;16.33;;
7375;SDS011;3728;42.266;24.944;2024-02-21T00:25:19;24.27;;;16.67;;
7375;SDS011;3728;42.266;24.944;2024-02-21T00:27:46;33.83;;;19.73;;
7375;SDS011;3728;42.266;24.944;2024-02-21T00:30:13;32.47;;;19.50;;
7375;SDS011;3728;42.266;24.944;2024-02-21T00:32:40;27.87;;;18.03;;
7375;SDS011;3728;42.266;24.944;2024-02-21T00:35:07;28.20;;;18.53;;
7375;SDS011;3728;42.266;24.944;2024-02-21T00:37:34;28.50;;;17.57;;
7375;SDS011;3728;42.266;24.944;2024-02-21T00:40:02;33.50;;;20.80;;
7375;SDS011;3728;42.266;24.944;2024-02-21T00:42:29;31.50;;;19.37;;
7375;SDS011;3728;42.266;24.944;2024-02-21T00:44:56;35.17;;;19.93;;
7375;SDS011;3728;42.266;24.944;2024-02-21T00:47:23;32.67;;;20.80;;
7375;SDS011;3728;42.266;24.944;2024-02-21T00:49:50;28.37;;;20.17;;
7375;SDS011;3728;42.266;24.944;2024-02-21T00:52:17;37.37;;;23.07;;
7375;SDS011;3728;42.266;24.944;2024-02-21T00:54:44;31.50;;;23.30;;
7375;SDS011;3728;42.266;24.944;2024-02-21T00:57:19;34.37;;;24.60;;
7375;SDS011;3728;42.266;24.944;2024-02-21T00:59:46;37.37;;;23.93;;
7375;SDS011;3728;42.266;24.944;2024-02-21T01:02:13;38.93;;;25.57;;
7375;SDS011;3728;42.266;24.944;2024-02-21T01:04:40;35.90;;;25.30;;
7375;SDS011;3728;42.266;24.944;2024-02-21T01:07:08;42.17;;;28.40;;
7375;SDS011;3728;42.266;24.944;2024-02-21T01:09:38;43.43;;;27.47;;
7375;SDS011;3728;42.266;24.944;2024-02-21T01:12:05;42.73;;;29.77;;
7375;SDS011;3728;42.266;24.944;2024-02-21T01:14:32;42.90;;;29.23;;
7375;SDS011;3728;42.266;24.944;2024-02-21T01:16:59;38.20;;;26.43;;
7375;SDS011;3728;42.266;24.944;2024-02-21T01:19:26;36.93;;;24.10;;
7375;SDS011;3728;42.266;24.944;2024-02-21T01:21:53;37.57;;;23.50;;
7375;SDS011;3728;42.266;24.944;2024-02-21T01:24:20;36.63;;;23.53;;
7375;SDS011;3728;42.266;24.944;2024-02-21T01:26:47;33.97;;;23.77;;
7375;SDS011;3728;42.266;24.944;2024-02-21T01:29:15;40.13;;;24.13;;
7375;SDS011;3728;42.266;24.944;2024-02-21T01:31:42;33.23;;;22.73;;
7375;SDS011;3728;42.266;24.944;2024-02-21T01:34:09;33.87;;;23.27;;
7375;SDS011;3728;42.266;24.944;2024-02-21T01:36:36;35.13;;;24.47;;
7375;SDS011;3728;42.266;24.944;2024-02-21T01:39:03;35.27;;;23.90;;
7375;SDS011;3728;42.266;24.944;2024-02-21T01:41:30;40.07;;;24.17;;
7375;SDS011;3728;42.266;24.944;2024-02-21T01:43:58;39.13;;;25.80;;
7375;SDS011;3728;42.266;24.944;2024-02-21T01:46:25;35.93;;;25.43;;
7375;SDS011;3728;42.266;24.944;2024-02-21T01:48:57;42.23;;;28.10;;
7375;SDS011;3728;42.266;24.944;2024-02-21T01:51:24;45.07;;;27.67;;
7375;SDS011;3728;42.266;24.944;2024-02-21T01:53:52;41.20;;;27.50;;
7375;SDS011;3728;42.266;24.944;2024-02-21T01:56:22;39.53;;;27.03;;
7375;SDS011;3728;42.266;24.944;2024-02-21T01:58:49;44.93;;;29.33;;
7375;SDS011;3728;42.266;24.944;2024-02-21T02:01:18;47.63;;;28.83;;
7375;SDS011;3728;42.266;24.944;2024-02-21T02:03:48;43.33;;;28.83;;
7375;SDS011;3728;42.266;24.944;2024-02-21T02:06:16;43.23;;;28.60;;
7375;SDS011;3728;42.266;24.944;2024-02-21T02:08:43;44.37;;;29.87;;
7375;SDS011;3728;42.266;24.944;2024-02-21T02:11:13;46.43;;;30.27;;
7375;SDS011;3728;42.266;24.944;2024-02-21T02:13:41;49.40;;;29.67;;
7375;SDS011;3728;42.266;24.944;2024-02-21T02:16:08;46.40;;;30.57;;
7375;SDS011;3728;42.266;24.944;2024-02-21T02:18:35;49.83;;;30.93;;
7375;SDS011;3728;42.266;24.944;2024-02-21T02:21:03;52.53;;;31.23;;
7375;SDS011;3728;42.266;24.944;2024-02-21T02:23:35;59.03;;;40.07;;
7375;SDS011;3728;42.266;24.944;2024-02-21T02:26:07;58.63;;;38.87;;
7375;SDS011;3728;42.266;24.944;2024-02-21T02:28:34;41.37;;;28.27;;
7375;SDS011;3728;42.266;24.944;2024-02-21T02:31:04;38.73;;;26.47;;
7375;SDS011;3728;42.266;24.944;2024-02-21T02:33:32;38.10;;;24.83;;
7375;SDS011;3728;42.266;24.944;2024-02-21T02:35:59;38.87;;;26.17;;
7375;SDS011;3728;42.266;24.944;2024-02-21T02:38:26;38.63;;;25.27;;
7375;SDS011;3728;42.266;24.944;2024-02-21T02:40:53;38.33;;;25.80;;
7375;SDS011;3728;42.266;24.944;2024-02-21T02:43:20;47.33;;;28.03;;
7375;SDS011;3728;42.266;24.944;2024-02-21T02:45:47;42.37;;;25.70;;
7375;SDS011;3728;42.266;24.944;2024-02-21T02:48:14;41.07;;;25.13;;
7375;SDS011;3728;42.266;24.944;2024-02-21T02:50:41;39.77;;;25.60;;
7375;SDS011;3728;42.266;24.944;2024-02-21T02:53:08;36.27;;;24.57;;
7375;SDS011;3728;42.266;24.944;2024-02-21T02:55:35;36.80;;;23.73;;
7375;SDS011;3728;42.266;24.944;2024-02-21T02:58:02;36.77;;;25.50;;
7375;SDS011;3728;42.266;24.944;2024-02-21T03:00:30;35.43;;;24.07;;
7375;SDS011;3728;42.266;24.944;2024-02-21T03:02:57;36.90;;;24.23;;
7375;SDS011;3728;42.266;24.944;2024-02-21T03:05:24;32.97;;;23.27;;
7375;SDS011;3728;42.266;24.944;2024-02-21T03:07:51;34.53;;;22.77;;
7375;SDS011;3728;42.266;24.944;2024-02-21T03:10:18;34.60;;;22.80;;
7375;SDS011;3728;42.266;24.944;2024-02-21T03:12:46;37.90;;;24.43;;
7375;SDS011;3728;42.266;24.944;2024-02-21T03:15:13;35.03;;;23.80;;
7375;SDS011;3728;42.266;24.944;2024-02-21T03:17:41;32.67;;;22.83;;
7375;SDS011;3728;42.266;24.944;2024-02-21T03:20:09;34.67;;;23.17;;
7375;SDS011;3728;42.266;24.944;2024-02-21T03:22:39;33.80;;;21.53;;
7375;SDS011;3728;42.266;24.944;2024-02-21T03:25:08;32.90;;;23.70;;
7375;SDS011;3728;42.266;24.944;2024-02-21T03:27:37;29.10;;;20.57;;
7375;SDS011;3728;42.266;24.944;2024-02-21T03:30:04;30.90;;;21.33;;
7375;SDS011;3728;42.266;24.944;2024-02-21T03:32:31;30.33;;;21.03;;
7375;SDS011;3728;42.266;24.944;2024-02-21T03:34:58;30.53;;;20.43;;
7375;SDS011;3728;42.266;24.944;2024-02-21T03:37:26;34.70;;;21.70;;
7375;SDS011;3728;42.266;24.944;2024-02-21T03:39:53;28.23;;;19.57;;
7375;SDS011;3728;42.266;24.944;2024-02-21T03:42:20;27.60;;;19.67;;
7375;SDS011;3728;42.266;24.944;2024-02-21T03:44:47;31.97;;;21.00;;
7375;SDS011;3728;42.266;24.944;2024-02-21T03:47:14;31.13;;;20.60;;
7375;SDS011;3728;42.266;24.944;2024-02-21T03:49:41;32.97;;;20.40;;
7375;SDS011;3728;42.266;24.944;2024-02-21T03:52:09;26.47;;;19.10;;
7375;SDS011;3728;42.266;24.944;2024-02-21T03:54:37;30.83;;;19.37;;
7375;SDS011;3728;42.266;24.944;2024-02-21T03:57:04;29.93;;;19.13;;
7375;SDS011;3728;42.266;24.944;2024-02-21T03:59:32;29.80;;;19.33;;
7375;SDS011;3728;42.266;24.944;2024-02-21T04:01:59;27.43;;;18.63;;
7375;SDS011;3728;42.266;24.944;2024-02-21T04:04:27;30.83;;;19.97;;
7375;SDS011;3728;42.266;24.944;2024-02-21T04:06:55;36.43;;;22.57;;
7375;SDS011;3728;42.266;24.944;2024-02-21T04:09:22;38.90;;;24.53;;
7375;SDS011;3728;42.266;24.944;2024-02-21T04:11:52;36.43;;;24.73;;
7375;SDS011;3728;42.266;24.944;2024-02-21T04:14:19;29.30;;;20.60;;
7375;SDS011;3728;42.266;24.944;2024-02-21T04:16:46;22.97;;;18.23;;
7375;SDS011;3728;42.266;24.944;2024-02-21T04:19:15;26.40;;;18.63;;
7375;SDS011;3728;42.266;24.944;2024-02-21T04:21:42;26.17;;;17.27;;
7375;SDS011;3728;42.266;24.944;2024-02-21T04:24:10;23.63;;;16.47;;
7375;SDS011;3728;42.266;24.944;2024-02-21T04:26:37;24.27;;;17.57;;
7375;SDS011;3728;42.266;24.944;2024-02-21T04:29:04;21.80;;;15.87;;
7375;SDS011;3728;42.266;24.944;2024-02-21T04:31:32;25.00;;;16.83;;
7375;SDS011;3728;42.266;24.944;2024-02-21T04:34:00;22.50;;;14.83;;
7375;SDS011;3728;42.266;24.944;2024-02-21T04:36:27;22.83;;;14.10;;
7375;SDS011;3728;42.266;24.944;2024-02-21T04:38:54;20.77;;;14.50;;
7375;SDS011;3728;42.266;24.944;2024-02-21T04:41:21;19.43;;;14.10;;
7375;SDS011;3728;42.266;24.944;2024-02-21T04:43:48;23.97;;;14.40;;
7375;SDS011;3728;42.266;24.944;2024-02-21T04:46:18;19.60;;;13.57;;
7375;SDS011;3728;42.266;24.944;2024-02-21T04:48:45;19.30;;;13.57;;
7375;SDS011;3728;42.266;24.944;2024-02-21T04:51:12;16.83;;;11.97;;
7375;SDS011;3728;42.266;24.944;2024-02-21T04:53:40;16.63;;;11.70;;
7375;SDS011;3728;42.266;24.944;2024-02-21T04:56:07;16.90;;;11.83;;
7375;SDS011;3728;42.266;24.944;2024-02-21T04:58:37;14.97;;;11.43;;
7375;SDS011;3728;42.266;24.944;2024-02-21T05:01:05;17.37;;;12.20;;
7375;SDS011;3728;42.266;24.944;2024-02-21T05:03:32;15.53;;;11.67;;
7375;SDS011;3728;42.266;24.944;2024-02-21T05:06:00;15.83;;;11.63;;
7375;SDS011;3728;42.266;24.944;2024-02-21T05:08:27;17.43;;;12.47;;
7375;SDS011;3728;42.266;24.944;2024-02-21T05:10:54;20.50;;;13.37;;
7375;SDS011;3728;42.266;24.944;2024-02-21T05:13:21;22.63;;;13.67;;
7375;SDS011;3728;42.266;24.944;2024-02-21T05:15:52;21.47;;;15.07;;
7375;SDS011;3728;42.266;24.944;2024-02-21T05:18:19;24.90;;;15.70;;
7375;SDS011;3728;42.266;24.944;2024-02-21T05:20:49;26.43;;;15.80;;
7375;SDS011;3728;42.266;24.944;2024-02-21T05:23:16;31.13;;;19.33;;
7375;SDS011;3728;42.266;24.944;2024-02-21T05:25:43;28.70;;;18.83;;
7375;SDS011;3728;42.266;24.944;2024-02-21T05:28:10;27.07;;;17.30;;
7375;SDS011;3728;42.266;24.944;2024-02-21T05:30:37;27.43;;;17.50;;
7375;SDS011;3728;42.266;24.944;2024-02-21T05:33:05;26.60;;;16.37;;
7375;SDS011;3728;42.266;24.944;2024-02-21T05:35:33;26.10;;;15.73;;
7375;SDS011;3728;42.266;24.944;2024-02-21T05:38:00;26.60;;;16.30;;
7375;SDS011;3728;42.266;24.944;2024-02-21T05:40:30;22.50;;;15.73;;
7375;SDS011;3728;42.266;24.944;2024-02-21T05:42:57;22.93;;;14.63;;
7375;SDS011;3728;42.266;24.944;2024-02-21T05:45:24;25.13;;;16.20;;
7375;SDS011;3728;42.266;24.944;2024-02-21T05:47:51;25.37;;;16.13;;
7375;SDS011;3728;42.266;24.944;2024-02-21T05:50:18;22.23;;;15.50;;
7375;SDS011;3728;42.266;24.944;2024-02-21T05:52:48;25.33;;;16.10;;
7375;SDS011;3728;42.266;24.944;2024-02-21T05:55:15;22.37;;;15.17;;
7375;SDS011;3728;42.266;24.944;2024-02-21T05:57:42;23.77;;;14.67;;
7375;SDS011;3728;42.266;24.944;2024-02-21T06:00:09;21.33;;;15.27;;
7375;SDS011;3728;42.266;24.944;2024-02-21T06:02:39;23.63;;;16.17;;
7375;SDS011;3728;42.266;24.944;2024-02-21T06:05:07;32.40;;;22.17;;
7375;SDS011;3728;42.266;24.944;2024-02-21T06:07:35;39.90;;;26.03;;
7375;SDS011;3728;42.266;24.944;2024-02-21T06:10:02;31.00;;;17.57;;
7375;SDS011;3728;42.266;24.944;2024-02-21T06:12:30;30.90;;;20.53;;
7375;SDS011;3728;42.266;24.944;2024-02-21T06:14:56;25.47;;;19.37;;
7375;SDS011;3728;42.266;24.944;2024-02-21T06:17:23;29.07;;;19.43;;
7375;SDS011;3728;42.266;24.944;2024-02-21T06:19:51;32.57;;;20.87;;
7375;SDS011;3728;42.266;24.944;2024-02-21T06:22:18;29.20;;;19.60;;
7375;SDS011;3728;42.266;24.944;2024-02-21T06:24:45;34.30;;;22.07;;
7375;SDS011;3728;42.266;24.944;2024-02-21T06:27:12;31.10;;;20.00;;
7375;SDS011;3728;42.266;24.944;2024-02-21T06:29:41;30.90;;;18.30;;
7375;SDS011;3728;42.266;24.944;2024-02-21T06:32:08;27.23;;;18.20;;
7375;SDS011;3728;42.266;24.944;2024-02-21T06:34:35;24.50;;;16.43;;
7375;SDS011;3728;42.266;24.944;2024-02-21T06:37:02;23.27;;;16.00;;
7375;SDS011;3728;42.266;24.944;2024-02-21T06:39:29;22.27;;;15.07;;
7375;SDS011;3728;42.266;24.944;2024-02-21T06:41:57;21.20;;;15.60;;
7375;SDS011;3728;42.266;24.944;2024-02-21T06:44:29;21.97;;;16.00;;
7375;SDS011;3728;42.266;24.944;2024-02-21T06:46:57;20.67;;;14.90;;
7375;SDS011;3728;42.266;24.944;2024-02-21T06:49:25;21.70;;;13.90;;
7375;SDS011;3728;42.266;24.944;2024-02-21T06:51:53;16.53;;;13.27;;
7375;SDS011;3728;42.266;24.944;2024-02-21T06:54:20;17.20;;;13.03;;
7375;SDS011;3728;42.266;24.944;2024-02-21T06:56:47;19.77;;;15.30;;
7375;SDS011;3728;42.266;24.944;2024-02-21T06:59:14;18.17;;;14.10;;
7375;SDS011;3728;42.266;24.944;2024-02-21T07:01:47;19.67;;;13.50;;
7375;SDS011;3728;42.266;24.944;2024-02-21T07:04:15;20.70;;;15.27;;
7375;SDS011;3728;42.266;24.944;2024-02-21T07:06:43;23.43;;;18.27;;
7375;SDS011;3728;42.266;24.944;2024-02-21T07:09:10;21.70;;;14.97;;
7375;SDS011;3728;42.266;24.944;2024-02-21T07:11:37;16.73;;;13.03;;
7375;SDS011;3728;42.266;24.944;2024-02-21T07:14:04;17.90;;;12.93;;
7375;SDS011;3728;42.266;24.944;2024-02-21T07:16:31;16.23;;;12.83;;
7375;SDS011;3728;42.266;24.944;2024-02-21T07:19:00;17.57;;;13.47;;
7375;SDS011;3728;42.266;24.944;2024-02-21T07:21:27;19.27;;;14.37;;
7375;SDS011;3728;42.266;24.944;2024-02-21T07:23:54;18.20;;;13.93;;
7375;SDS011;3728;42.266;24.944;2024-02-21T07:26:21;19.80;;;14.57;;
7375;SDS011;3728;42.266;24.944;2024-02-21T07:28:49;20.10;;;14.60;;
7375;SDS011;3728;42.266;24.944;2024-02-21T07:31:16;21.67;;;16.57;;
7375;SDS011;3728;42.266;24.944;2024-02-21T07:33:43;20.63;;;16.17;;
7375;SDS011;3728;42.266;24.944;2024-02-21T07:36:11;33.63;;;24.00;;
7375;SDS011;3728;42.266;24.944;2024-02-21T07:38:38;32.87;;;25.23;;
7375;SDS011;3728;42.266;24.944;2024-02-21T07:41:05;19.63;;;15.50;;
7375;SDS011;3728;42.266;24.944;2024-02-21T07:43:32;21.00;;;16.00;;
7375;SDS011;3728;42.266;24.944;2024-02-21T07:46:00;21.77;;;16.87;;
7375;SDS011;3728;42.266;24.944;2024-02-21T07:48:27;22.80;;;16.80;;
7375;SDS011;3728;42.266;24.944;2024-02-21T07:50:56;27.03;;;18.90;;
7375;SDS011;3728;42.266;24.944;2024-02-21T07:53:23;28.23;;;19.57;;
7375;SDS011;3728;42.266;24.944;2024-02-21T07:55:50;28.67;;;20.97;;
7375;SDS011;3728;42.266;24.944;2024-02-21T07:58:18;26.70;;;20.50;;
7375;SDS011;3728;42.266;24.944;2024-02-21T08:00:45;29.57;;;20.73;;
7375;SDS011;3728;42.266;24.944;2024-02-21T08:03:12;31.00;;;20.60;;
7375;SDS011;3728;42.266;24.944;2024-02-21T08:05:42;30.77;;;19.97;;
7375;SDS011;3728;42.266;24.944;2024-02-21T08:08:09;30.03;;;19.40;;
7375;SDS011;3728;42.266;24.944;2024-02-21T08:10:36;27.47;;;21.10;;
7375;SDS011;3728;42.266;24.944;2024-02-21T08:13:03;32.77;;;21.40;;
7375;SDS011;3728;42.266;24.944;2024-02-21T08:15:30;32.63;;;20.97;;
7375;SDS011;3728;42.266;24.944;2024-02-21T08:18:00;32.90;;;20.33;;
7375;SDS011;3728;42.266;24.944;2024-02-21T08:20:28;28.73;;;20.17;;
7375;SDS011;3728;42.266;24.944;2024-02-21T08:22:55;30.47;;;20.23;;
7375;SDS011;3728;42.266;24.944;2024-02-21T08:25:22;30.87;;;21.43;;
7375;SDS011;3728;42.266;24.944;2024-02-21T08:27:49;25.57;;;20.10;;
7375;SDS011;3728;42.266;24.944;2024-02-21T08:30:17;27.00;;;19.83;;
7375;SDS011;3728;42.266;24.944;2024-02-21T08:32:45;28.57;;;20.37;;
7375;SDS011;3728;42.266;24.944;2024-02-21T08:35:11;29.83;;;20.43;;
7375;SDS011;3728;42.266;24.944;2024-02-21T08:37:39;35.10;;;20.50;;
7375;SDS011;3728;42.266;24.944;2024-02-21T08:40:06;23.53;;;18.03;;
7375;SDS011;3728;42.266;24.944;2024-02-21T08:42:35;27.87;;;18.70;;
7375;SDS011;3728;42.266;24.944;2024-02-21T08:45:03;27.97;;;19.57;;
7375;SDS011;3728;42.266;24.944;2024-02-21T08:47:30;27.83;;;19.17;;
7375;SDS011;3728;42.266;24.944;2024-02-21T08:49:57;26.90;;;18.80;;
7375;SDS011;3728;42.266;24.944;2024-02-21T08:52:30;26.63;;;18.87;;
7375;SDS011;3728;42.266;24.944;2024-02-21T08:54:57;23.60;;;18.53;;
7375;SDS011;3728;42.266;24.944;2024-02-21T08:57:24;25.53;;;18.50;;
7375;SDS011;3728;42.266;24.944;2024-02-21T08:59:51;22.77;;;18.03;;
7375;SDS011;3728;42.266;24.944;2024-02-21T09:02:18;23.40;;;18.37;;
7375;SDS011;3728;42.266;24.944;2024-02-21T09:04:45;23.03;;;17.53;;
7375;SDS011;3728;42.266;24.944;2024-02-21T09:07:12;23.77;;;17.17;;
7375;SDS011;3728;42.266;24.944;2024-02-21T09:09:39;24.33;;;18.43;;
7375;SDS011;3728;42.266;24.944;2024-02-21T09:12:06;24.77;;;17.40;;
7375;SDS011;3728;42.266;24.944;2024-02-21T09:14:37;26.47;;;18.23;;
7375;SDS011;3728;42.266;24.944;2024-02-21T09:17:06;24.33;;;17.90;;
7375;SDS011;3728;42.266;24.944;2024-02-21T09:19:35;24.03;;;17.70;;
7375;SDS011;3728;42.266;24.944;2024-02-21T09:22:02;38.50;;;22.63;;
7375;SDS011;3728;42.266;24.944;2024-02-21T09:24:29;17.93;;;14.33;;
7375;SDS011;3728;42.266;24.944;2024-02-21T09:26:56;22.80;;;17.50;;
7375;SDS011;3728;42.266;24.944;2024-02-21T09:29:23;19.77;;;14.27;;
7375;SDS011;3728;42.266;24.944;2024-02-21T09:31:53;17.30;;;13.53;;
7375;SDS011;3728;42.266;24.944;2024-02-21T09:34:20;22.67;;;16.27;;
7375;SDS011;3728;42.266;24.944;2024-02-21T09:36:49;16.77;;;13.10;;
7375;SDS011;3728;42.266;24.944;2024-02-21T09:39:16;21.10;;;13.97;;
7375;SDS011;3728;42.266;24.944;2024-02-21T09:41:50;14.37;;;11.77;;
7375;SDS011;3728;42.266;24.944;2024-02-21T09:44:22;11.77;;;10.17;;
7375;SDS011;3728;42.266;24.944;2024-02-21T09:49:32;10.87;;;9.07;;
7375;SDS011;3728;42.266;24.944;2024-02-21T09:52:05;12.67;;;8.87;;
7375;SDS011;3728;42.266;24.944;2024-02-21T09:54:33;11.03;;;9.07;;
7375;SDS011;3728;42.266;24.944;2024-02-21T09:57:02;20.07;;;11.97;;
7375;SDS011;3728;42.266;24.944;2024-02-21T09:59:30;14.43;;;10.43;;
7375;SDS011;3728;42.266;24.944;2024-02-21T10:01:58;9.97;;;8.70;;
7375;SDS011;3728;42.266;24.944;2024-02-21T10:04:29;10.27;;;8.00;;
7375;SDS011;3728;42.266;24.944;2024-02-21T10:06:57;8.17;;;6.20;;
7375;SDS011;3728;42.266;24.944;2024-02-21T10:09:25;7.30;;;6.37;;
7375;SDS011;3728;42.266;24.944;2024-02-21T10:12:14;9.77;;;8.30;;
7375;SDS011;3728;42.266;24.944;2024-02-21T10:14:43;13.83;;;9.20;;
7375;SDS011;3728;42.266;24.944;2024-02-21T10:17:17;10.83;;;9.70;;
7375;SDS011;3728;42.266;24.944;2024-02-21T10:19:49;18.17;;;9.00;;
7375;SDS011;3728;42.266;24.944;2024-02-21T10:22:18;11.03;;;9.00;;
7375;SDS011;3728;42.266;24.944;2024-02-21T10:24:48;10.80;;;8.10;;
7375;SDS011;3728;42.266;24.944;2024-02-21T10:27:18;12.63;;;9.90;;
7375;SDS011;3728;42.266;24.944;2024-02-21T10:29:48;10.47;;;9.20;;
7375;SDS011;3728;42.266;24.944;2024-02-21T10:32:18;11.67;;;9.10;;
7375;SDS011;3728;42.266;24.944;2024-02-21T10:34:45;10.20;;;8.97;;
7375;SDS011;3728;42.266;24.944;2024-02-21T10:37:12;10.67;;;8.50;;
7375;SDS011;3728;42.266;24.944;2024-02-21T10:39:40;10.13;;;8.73;;
7375;SDS011;3728;42.266;24.944;2024-02-21T10:42:11;8.93;;;7.40;;
7375;SDS011;3728;42.266;24.944;2024-02-21T10:44:40;10.50;;;9.03;;
7375;SDS011;3728;42.266;24.944;2024-02-21T10:47:08;7.73;;;6.90;;
7375;SDS011;3728;42.266;24.944;2024-02-21T10:49:41;10.17;;;8.67;;
7375;SDS011;3728;42.266;24.944;2024-02-21T10:57:24;11.57;;;8.37;;
7375;SDS011;3728;42.266;24.944;2024-02-21T10:59:55;11.87;;;9.80;;
7375;SDS011;3728;42.266;24.944;2024-02-21T11:02:25;11.23;;;9.13;;
7375;SDS011;3728;42.266;24.944;2024-02-21T11:04:56;6.80;;;5.50;;
7375;SDS011;3728;42.266;24.944;2024-02-21T11:07:25;6.60;;;5.97;;
7375;SDS011;3728;42.266;24.944;2024-02-21T11:09:53;7.07;;;5.60;;
7375;SDS011;3728;42.266;24.944;2024-02-21T11:12:22;6.70;;;5.70;;
7375;SDS011;3728;42.266;24.944;2024-02-21T11:14:50;7.93;;;5.73;;
7375;SDS011;3728;42.266;24.944;2024-02-21T11:17:20;6.20;;;5.60;;
7375;SDS011;3728;42.266;24.944;2024-02-21T11:19:54;5.50;;;4.90;;
7375;SDS011;3728;42.266;24.944;2024-02-21T11:22:21;5.87;;;5.20;;
7375;SDS011;3728;42.266;24.944;2024-02-21T11:24:51;4.73;;;4.13;;
7375;SDS011;3728;42.266;24.944;2024-02-21T11:27:20;5.07;;;3.97;;
7375;SDS011;3728;42.266;24.944;2024-02-21T11:29:55;4.40;;;4.00;;
7375;SDS011;3728;42.266;24.944;2024-02-21T11:32:26;4.97;;;4.10;;
7375;SDS011;3728;42.266;24.944;2024-02-21T11:34:57;4.23;;;3.83;;
7375;SDS011;3728;42.266;24.944;2024-02-21T11:37:35;8.77;;;4.07;;
7375;SDS011;3728;42.266;24.944;2024-02-21T11:40:04;4.23;;;3.83;;
7375;SDS011;3728;42.266;24.944;2024-02-21T11:42:33;4.40;;;3.97;;
7375;SDS011;3728;42.266;24.944;2024-02-21T11:45:00;4.07;;;3.67;;
7375;SDS011;3728;42.266;24.944;2024-02-21T11:47:28;4.30;;;3.73;;
7375;SDS011;3728;42.266;24.944;2024-02-21T11:49:56;3.93;;;3.63;;
7375;SDS011;3728;42.266;24.944;2024-02-21T11:52:24;3.73;;;3.43;;
7375;SDS011;3728;42.266;24.944;2024-02-21T11:54:53;4.07;;;3.77;;
7375;SDS011;3728;42.266;24.944;2024-02-21T11:57:22;4.90;;;3.80;;
7375;SDS011;3728;42.266;24.944;2024-02-21T11:59:50;3.97;;;3.57;;
7375;SDS011;3728;42.266;24.944;2024-02-21T12:02:26;7.43;;;4.47;;
7375;SDS011;3728;42.266;24.944;2024-02-21T12:04:53;4.53;;;3.93;;
7375;SDS011;3728;42.266;24.944;2024-02-21T12:07:21;3.70;;;3.40;;
7375;SDS011;3728;42.266;24.944;2024-02-21T12:09:51;3.53;;;3.23;;
7375;SDS011;3728;42.266;24.944;2024-02-21T12:12:20;3.63;;;3.33;;
7375;SDS011;3728;42.266;24.944;2024-02-21T12:14:53;3.10;;;2.90;;
7375;SDS011;3728;42.266;24.944;2024-02-21T12:17:22;3.57;;;3.27;;
7375;SDS011;3728;42.266;24.944;2024-02-21T12:19:50;3.80;;;3.50;;
7375;SDS011;3728;42.266;24.944;2024-02-21T12:22:20;4.97;;;3.07;;
7375;SDS011;3728;42.266;24.944;2024-02-21T12:24:47;3.10;;;2.90;;
7375;SDS011;3728;42.266;24.944;2024-02-21T12:27:15;4.30;;;3.80;;
7375;SDS011;3728;42.266;24.944;2024-02-21T12:29:42;3.27;;;2.97;;
7375;SDS011;3728;42.266;24.944;2024-02-21T12:32:10;3.13;;;2.77;;
7375;SDS011;3728;42.266;24.944;2024-02-21T12:34:37;4.20;;;3.80;;
7375;SDS011;3728;42.266;24.944;2024-02-21T12:37:19;4.30;;;3.90;;
7375;SDS011;3728;42.266;24.944;2024-02-21T12:39:47;6.77;;;3.93;;
7375;SDS011;3728;42.266;24.944;2024-02-21T12:42:15;5.50;;;5.00;;
7375;SDS011;3728;42.266;24.944;2024-02-21T12:44:42;5.87;;;5.20;;
7375;SDS011;3728;42.266;24.944;2024-02-21T12:47:09;3.60;;;3.30;;
7375;SDS011;3728;42.266;24.944;2024-02-21T12:49:37;4.30;;;3.90;;
7375;SDS011;3728;42.266;24.944;2024-02-21T12:52:10;8.73;;;3.43;;
7375;SDS011;3728;42.266;24.944;2024-02-21T12:54:38;4.17;;;3.73;;
7375;SDS011;3728;42.266;24.944;2024-02-21T12:57:05;3.73;;;3.43;;
7375;SDS011;3728;42.266;24.944;2024-02-21T12:59:32;10.83;;;3.40;;
7375;SDS011;3728;42.266;24.944;2024-02-21T13:01:59;4.80;;;3.50;;
7375;SDS011;3728;42.266;24.944;2024-02-21T13:04:26;3.77;;;3.37;;
7375;SDS011;3728;42.266;24.944;2024-02-21T13:06:56;3.03;;;2.77;;
7375;SDS011;3728;42.266;24.944;2024-02-21T13:09:23;3.10;;;2.87;;
7375;SDS011;3728;42.266;24.944;2024-02-21T13:11:50;3.03;;;2.73;;
7375;SDS011;3728;42.266;24.944;2024-02-21T13:14:18;3.67;;;3.37;;
7375;SDS011;3728;42.266;24.944;2024-02-21T13:16:45;4.77;;;4.30;;
7375;SDS011;3728;42.266;24.944;2024-02-21T13:19:12;6.50;;;3.70;;
7375;SDS011;3728;42.266;24.944;2024-02-21T13:21:44;6.20;;;3.90;;
7375;SDS011;3728;42.266;24.944;2024-02-21T13:24:11;4.50;;;3.23;;
7375;SDS011;3728;42.266;24.944;2024-02-21T13:26:38;3.60;;;3.30;;
7375;SDS011;3728;42.266;24.944;2024-02-21T13:29:05;4.60;;;3.20;;
7375;SDS011;3728;42.266;24.944;2024-02-21T13:31:33;3.97;;;3.57;;
7375;SDS011;3728;42.266;24.944;2024-02-21T13:34:00;3.60;;;3.30;;
7375;SDS011;3728;42.266;24.944;2024-02-21T13:36:27;3.60;;;2.90;;
7375;SDS011;3728;42.266;24.944;2024-02-21T13:38:54;3.03;;;2.83;;
7375;SDS011;3728;42.266;24.944;2024-02-21T13:41:21;4.77;;;4.33;;
7375;SDS011;3728;42.266;24.944;2024-02-21T13:43:49;7.50;;;4.10;;
7375;SDS011;3728;42.266;24.944;2024-02-21T13:46:16;5.93;;;3.50;;
7375;SDS011;3728;42.266;24.944;2024-02-21T13:48:43;3.30;;;3.00;;
7375;SDS011;3728;42.266;24.944;2024-02-21T13:51:11;2.87;;;2.67;;
7375;SDS011;3728;42.266;24.944;2024-02-21T13:53:40;7.53;;;3.27;;
7375;SDS011;3728;42.266;24.944;2024-02-21T13:56:08;3.47;;;3.17;;
7375;SDS011;3728;42.266;24.944;2024-02-21T13:58:36;4.10;;;3.23;;
7375;SDS011;3728;42.266;24.944;2024-02-21T14:01:04;6.77;;;3.70;;
7375;SDS011;3728;42.266;24.944;2024-02-21T14:03:31;3.70;;;3.40;;
7375;SDS011;3728;42.266;24.944;2024-02-21T14:05:59;3.50;;;2.90;;
7375;SDS011;3728;42.266;24.944;2024-02-21T14:08:26;3.43;;;3.20;;
7375;SDS011;3728;42.266;24.944;2024-02-21T14:10:53;3.93;;;3.63;;
7375;SDS011;3728;42.266;24.944;2024-02-21T14:13:22;5.37;;;3.50;;
7375;SDS011;3728;42.266;24.944;2024-02-21T14:15:49;4.30;;;3.90;;
7375;SDS011;3728;42.266;24.944;2024-02-21T14:18:17;10.07;;;8.03;;
7375;SDS011;3728;42.266;24.944;2024-02-21T14:20:44;24.70;;;16.77;;
7375;SDS011;3728;42.266;24.944;2024-02-21T14:23:13;14.93;;;13.20;;
7375;SDS011;3728;42.266;24.944;2024-02-21T14:25:43;16.20;;;13.97;;
7375;SDS011;3728;42.266;24.944;2024-02-21T14:28:10;21.20;;;18.97;;
7375;SDS011;3728;42.266;24.944;2024-02-21T14:30:37;20.30;;;13.30;;
7375;SDS011;3728;42.266;24.944;2024-02-21T14:33:04;7.77;;;6.40;;
7375;SDS011;3728;42.266;24.944;2024-02-21T14:35:31;5.70;;;4.43;;
7375;SDS011;3728;42.266;24.944;2024-02-21T14:37:58;4.30;;;3.90;;
7375;SDS011;3728;42.266;24.944;2024-02-21T14:40:28;5.10;;;4.60;;
7375;SDS011;3728;42.266;24.944;2024-02-21T14:42:57;6.68;;;5.28;;
7375;SDS011;3728;42.266;24.944;2024-02-21T14:45:24;25.55;;;14.18;;
7375;SDS011;3728;42.266;24.944;2024-02-21T14:47:51;74.10;;;33.55;;
7375;SDS011;3728;42.266;24.944;2024-02-21T14:50:18;45.38;;;22.63;;
7375;SDS011;3728;42.266;24.944;2024-02-21T14:52:45;60.28;;;34.60;;